sensor_id;sensor_type;location;lat;lon;timestamp;P1;durP1;ratioP1;P2;durP2;ratioP2
52962;SDS011;38827;53.024;6.596;2023-02-03T00:29:50;8.00;;;1.70;;
52962;SDS011;38827;53.024;6.596;2023-02-03T00:39:13;6.85;;;1.58;;
52962;SDS011;38827;53.024;6.596;2023-02-03T00:41:46;6.50;;;1.80;;
52962;SDS011;38827;53.024;6.596;2023-02-03T00:51:21;5.60;;;1.50;;
52962;SDS011;38827;53.024;6.596;2023-02-03T01:03:49;5.20;;;1.40;;
52962;SDS011;38827;53.024;6.596;2023-02-03T01:06:32;12.00;;;2.00;;
52962;SDS011;38827;53.024;6.596;2023-02-03T01:13:40;6.60;;;1.50;;
52962;SDS011;38827;53.024;6.596;2023-02-03T01:34:02;10.40;;;2.40;;
52962;SDS011;38827;53.024;6.596;2023-02-03T01:36:46;7.05;;;1.70;;
52962;SDS011;38827;53.024;6.596;2023-02-03T01:39:30;9.90;;;2.25;;
52962;SDS011;38827;53.024;6.596;2023-02-03T02:01:47;9.68;;;1.95;;
52962;SDS011;38827;53.024;6.596;2023-02-03T02:04:22;8.40;;;1.65;;
52962;SDS011;38827;53.024;6.596;2023-02-03T03:32:19;8.20;;;1.52;;
52962;SDS011;38827;53.024;6.596;2023-02-03T03:56:23;11.75;;;2.70;;
52962;SDS011;38827;53.024;6.596;2023-02-03T04:49:00;9.88;;;1.80;;
52962;SDS011;38827;53.024;6.596;2023-02-03T05:28:21;10.18;;;2.08;;
52962;SDS011;38827;53.024;6.596;2023-02-03T07:26:23;17.98;;;3.92;;
52962;SDS011;38827;53.024;6.596;2023-02-03T07:32:18;20.73;;;3.97;;
52962;SDS011;38827;53.024;6.596;2023-02-03T07:47:28;17.90;;;3.85;;
52962;SDS011;38827;53.024;6.596;2023-02-03T07:53:26;16.63;;;3.72;;
52962;SDS011;38827;53.024;6.596;2023-02-03T07:56:10;20.23;;;4.00;;
52962;SDS011;38827;53.024;6.596;2023-02-03T07:59:05;15.00;;;3.85;;
52962;SDS011;38827;53.024;6.596;2023-02-03T08:21:46;17.73;;;3.67;;
52962;SDS011;38827;53.024;6.596;2023-02-03T08:28:11;19.33;;;3.25;;
52962;SDS011;38827;53.024;6.596;2023-02-03T08:51:56;21.03;;;3.33;;
52962;SDS011;38827;53.024;6.596;2023-02-03T09:24:30;28.50;;;4.80;;
52962;SDS011;38827;53.024;6.596;2023-02-03T09:33:01;31.90;;;4.72;;
52962;SDS011;38827;53.024;6.596;2023-02-03T10:01:56;21.55;;;3.63;;
52962;SDS011;38827;53.024;6.596;2023-02-03T10:28:36;27.08;;;4.93;;
52962;SDS011;38827;53.024;6.596;2023-02-03T10:49:22;28.48;;;4.82;;
52962;SDS011;38827;53.024;6.596;2023-02-03T10:51:51;27.80;;;4.95;;
52962;SDS011;38827;53.024;6.596;2023-02-03T10:54:29;28.30;;;4.82;;
52962;SDS011;38827;53.024;6.596;2023-02-03T10:57:03;31.73;;;5.22;;
52962;SDS011;38827;53.024;6.596;2023-02-03T10:59:46;23.33;;;5.03;;
52962;SDS011;38827;53.024;6.596;2023-02-03T11:02:23;30.10;;;5.82;;
52962;SDS011;38827;53.024;6.596;2023-02-03T11:05:18;22.95;;;6.03;;
52962;SDS011;38827;53.024;6.596;2023-02-03T11:07:45;33.15;;;6.20;;
52962;SDS011;38827;53.024;6.596;2023-02-03T11:49:08;34.28;;;6.13;;
52962;SDS011;38827;53.024;6.596;2023-02-03T12:03:26;31.48;;;5.75;;
52962;SDS011;38827;53.024;6.596;2023-02-03T12:19:13;25.80;;;5.65;;
52962;SDS011;38827;53.024;6.596;2023-02-03T12:36:49;36.25;;;5.35;;
52962;SDS011;38827;53.024;6.596;2023-02-03T13:01:25;24.27;;;4.28;;
52962;SDS011;38827;53.024;6.596;2023-02-03T13:12:41;28.40;;;4.70;;
52962;SDS011;38827;53.024;6.596;2023-02-03T13:23:20;33.03;;;5.57;;
52962;SDS011;38827;53.024;6.596;2023-02-03T15:31:05;21.30;;;3.75;;
52962;SDS011;38827;53.024;6.596;2023-02-03T16:57:31;34.88;;;5.68;;
52962;SDS011;38827;53.024;6.596;2023-02-03T17:10:43;30.15;;;5.32;;
52962;SDS011;38827;53.024;6.596;2023-02-03T17:24:19;29.20;;;5.03;;
52962;SDS011;38827;53.024;6.596;2023-02-03T17:26:45;27.27;;;5.18;;
52962;SDS011;38827;53.024;6.596;2023-02-03T18:02:04;36.03;;;5.03;;
52962;SDS011;38827;53.024;6.596;2023-02-03T18:04:50;26.70;;;4.85;;
52962;SDS011;38827;53.024;6.596;2023-02-03T18:10:48;26.17;;;6.55;;
52962;SDS011;38827;53.024;6.596;2023-02-03T18:13:41;27.63;;;4.28;;
52962;SDS011;38827;53.024;6.596;2023-02-03T18:16:09;19.58;;;4.00;;
52962;SDS011;38827;53.024;6.596;2023-02-03T18:18:39;28.33;;;5.18;;
52962;SDS011;38827;53.024;6.596;2023-02-03T18:21:05;27.80;;;4.47;;
52962;SDS011;38827;53.024;6.596;2023-02-03T18:23:34;29.27;;;4.78;;
52962;SDS011;38827;53.024;6.596;2023-02-03T18:26:00;28.27;;;4.72;;
52962;SDS011;38827;53.024;6.596;2023-02-03T18:28:27;26.43;;;5.70;;
52962;SDS011;38827;53.024;6.596;2023-02-03T18:31:14;33.42;;;5.15;;
52962;SDS011;38827;53.024;6.596;2023-02-03T18:33:52;27.52;;;4.50;;
52962;SDS011;38827;53.024;6.596;2023-02-03T18:36:18;23.30;;;4.88;;
52962;SDS011;38827;53.024;6.596;2023-02-03T18:38:53;27.20;;;4.00;;
52962;SDS011;38827;53.024;6.596;2023-02-03T18:41:28;27.05;;;4.55;;
52962;SDS011;38827;53.024;6.596;2023-02-03T18:44:25;24.52;;;4.30;;
52962;SDS011;38827;53.024;6.596;2023-02-03T18:46:54;30.15;;;4.40;;
52962;SDS011;38827;53.024;6.596;2023-02-03T18:49:20;26.15;;;4.50;;
52962;SDS011;38827;53.024;6.596;2023-02-03T18:52:23;23.70;;;5.00;;
52962;SDS011;38827;53.024;6.596;2023-02-03T19:01:02;32.08;;;6.18;;
52962;SDS011;38827;53.024;6.596;2023-02-03T19:03:30;26.65;;;4.22;;
52962;SDS011;38827;53.024;6.596;2023-02-03T19:06:14;33.00;;;6.05;;
52962;SDS011;38827;53.024;6.596;2023-02-03T19:39:20;29.48;;;5.47;;
52962;SDS011;38827;53.024;6.596;2023-02-03T19:57:53;38.28;;;5.32;;
52962;SDS011;38827;53.024;6.596;2023-02-03T20:00:20;31.77;;;5.55;;
52962;SDS011;38827;53.024;6.596;2023-02-03T20:02:46;38.33;;;6.20;;
52962;SDS011;38827;53.024;6.596;2023-02-03T20:05:14;34.25;;;5.45;;
52962;SDS011;38827;53.024;6.596;2023-02-03T20:07:42;34.75;;;5.75;;
52962;SDS011;38827;53.024;6.596;2023-02-03T20:10:07;30.73;;;5.50;;
52962;SDS011;38827;53.024;6.596;2023-02-03T20:12:33;31.10;;;5.38;;
52962;SDS011;38827;53.024;6.596;2023-02-03T20:14:59;34.80;;;5.45;;
52962;SDS011;38827;53.024;6.596;2023-02-03T20:17:26;32.53;;;5.65;;
52962;SDS011;38827;53.024;6.596;2023-02-03T20:19:54;32.83;;;7.03;;
52962;SDS011;38827;53.024;6.596;2023-02-03T20:22:20;37.70;;;6.30;;
52962;SDS011;38827;53.024;6.596;2023-02-03T20:24:46;33.53;;;5.25;;
52962;SDS011;38827;53.024;6.596;2023-02-03T20:27:14;38.58;;;5.47;;
52962;SDS011;38827;53.024;6.596;2023-02-03T20:29:41;32.80;;;5.43;;
52962;SDS011;38827;53.024;6.596;2023-02-03T20:32:08;41.87;;;5.80;;
52962;SDS011;38827;53.024;6.596;2023-02-03T20:34:36;37.97;;;6.15;;
52962;SDS011;38827;53.024;6.596;2023-02-03T20:37:04;35.33;;;6.05;;
52962;SDS011;38827;53.024;6.596;2023-02-03T20:39:51;47.72;;;7.22;;
52962;SDS011;38827;53.024;6.596;2023-02-03T20:42:32;38.28;;;5.18;;
52962;SDS011;38827;53.024;6.596;2023-02-03T20:44:58;28.25;;;4.90;;
52962;SDS011;38827;53.024;6.596;2023-02-03T20:47:24;33.42;;;5.30;;
52962;SDS011;38827;53.024;6.596;2023-02-03T20:50:00;34.58;;;4.82;;
52962;SDS011;38827;53.024;6.596;2023-02-03T20:52:35;41.33;;;5.80;;
52962;SDS011;38827;53.024;6.596;2023-02-03T20:55:01;39.67;;;6.57;;
52962;SDS011;38827;53.024;6.596;2023-02-03T20:57:33;42.05;;;6.38;;
52962;SDS011;38827;53.024;6.596;2023-02-03T20:59:59;27.27;;;4.55;;
52962;SDS011;38827;53.024;6.596;2023-02-03T21:02:24;35.75;;;5.82;;
52962;SDS011;38827;53.024;6.596;2023-02-03T21:05:23;35.05;;;5.65;;
52962;SDS011;38827;53.024;6.596;2023-02-03T21:07:53;38.20;;;6.55;;
52962;SDS011;38827;53.024;6.596;2023-02-03T21:10:20;37.25;;;5.25;;
52962;SDS011;38827;53.024;6.596;2023-02-03T21:12:47;38.08;;;6.13;;
52962;SDS011;38827;53.024;6.596;2023-02-03T21:15:22;45.80;;;9.67;;
52962;SDS011;38827;53.024;6.596;2023-02-03T21:17:52;46.35;;;6.65;;
52962;SDS011;38827;53.024;6.596;2023-02-03T21:20:26;42.15;;;6.90;;
52962;SDS011;38827;53.024;6.596;2023-02-03T21:22:56;39.30;;;5.78;;
52962;SDS011;38827;53.024;6.596;2023-02-03T21:25:26;39.40;;;6.07;;
52962;SDS011;38827;53.024;6.596;2023-02-03T21:27:58;32.27;;;5.33;;
52962;SDS011;38827;53.024;6.596;2023-02-03T21:30:26;36.35;;;5.43;;
52962;SDS011;38827;53.024;6.596;2023-02-03T21:32:56;44.55;;;5.78;;
52962;SDS011;38827;53.024;6.596;2023-02-03T21:35:35;35.40;;;6.00;;
52962;SDS011;38827;53.024;6.596;2023-02-03T21:38:04;31.08;;;5.10;;
52962;SDS011;38827;53.024;6.596;2023-02-03T21:40:56;36.65;;;5.82;;
52962;SDS011;38827;53.024;6.596;2023-02-03T21:43:25;41.22;;;6.40;;
52962;SDS011;38827;53.024;6.596;2023-02-03T21:45:53;36.47;;;5.95;;
52962;SDS011;38827;53.024;6.596;2023-02-03T21:48:29;42.30;;;5.85;;
52962;SDS011;38827;53.024;6.596;2023-02-03T21:53:27;44.25;;;6.07;;
52962;SDS011;38827;53.024;6.596;2023-02-03T21:56:14;35.15;;;5.28;;
52962;SDS011;38827;53.024;6.596;2023-02-03T21:58:55;32.78;;;6.03;;
52962;SDS011;38827;53.024;6.596;2023-02-03T22:01:40;28.45;;;5.97;;
52962;SDS011;38827;53.024;6.596;2023-02-03T22:04:06;37.17;;;5.57;;
52962;SDS011;38827;53.024;6.596;2023-02-03T22:09:13;40.00;;;5.28;;
52962;SDS011;38827;53.024;6.596;2023-02-03T22:11:42;38.63;;;6.10;;
52962;SDS011;38827;53.024;6.596;2023-02-03T22:14:08;44.22;;;5.82;;
52962;SDS011;38827;53.024;6.596;2023-02-03T22:16:34;33.67;;;6.88;;
52962;SDS011;38827;53.024;6.596;2023-02-03T22:19:02;34.50;;;5.60;;
52962;SDS011;38827;53.024;6.596;2023-02-03T22:21:28;40.35;;;6.93;;
52962;SDS011;38827;53.024;6.596;2023-02-03T22:33:16;41.40;;;6.22;;
52962;SDS011;38827;53.024;6.596;2023-02-03T22:35:44;47.75;;;6.32;;
52962;SDS011;38827;53.024;6.596;2023-02-03T22:44:53;31.80;;;5.60;;
52962;SDS011;38827;53.024;6.596;2023-02-03T22:50:42;46.80;;;7.40;;
52962;SDS011;38827;53.024;6.596;2023-02-03T22:53:08;37.10;;;6.03;;
52962;SDS011;38827;53.024;6.596;2023-02-03T22:55:36;40.10;;;6.13;;
52962;SDS011;38827;53.024;6.596;2023-02-03T22:58:05;32.92;;;4.82;;
52962;SDS011;38827;53.024;6.596;2023-02-03T23:00:32;46.90;;;7.40;;
52962;SDS011;38827;53.024;6.596;2023-02-03T23:02:58;45.88;;;6.93;;
52962;SDS011;38827;53.024;6.596;2023-02-03T23:05:24;37.93;;;6.40;;
52962;SDS011;38827;53.024;6.596;2023-02-03T23:07:50;48.50;;;6.80;;
52962;SDS011;38827;53.024;6.596;2023-02-03T23:10:20;41.33;;;5.38;;
52962;SDS011;38827;53.024;6.596;2023-02-03T23:12:48;43.50;;;6.13;;
52962;SDS011;38827;53.024;6.596;2023-02-03T23:15:14;42.20;;;7.13;;
52962;SDS011;38827;53.024;6.596;2023-02-03T23:17:41;40.10;;;6.43;;
52962;SDS011;38827;53.024;6.596;2023-02-03T23:20:08;39.22;;;5.85;;
52962;SDS011;38827;53.024;6.596;2023-02-03T23:22:36;44.65;;;6.70;;
52962;SDS011;38827;53.024;6.596;2023-02-03T23:25:02;45.42;;;6.93;;
52962;SDS011;38827;53.024;6.596;2023-02-03T23:27:29;41.47;;;7.22;;
52962;SDS011;38827;53.024;6.596;2023-02-03T23:29:55;38.05;;;6.25;;
52962;SDS011;38827;53.024;6.596;2023-02-03T23:32:21;45.03;;;6.60;;
52962;SDS011;38827;53.024;6.596;2023-02-03T23:34:47;36.10;;;6.25;;
52962;SDS011;38827;53.024;6.596;2023-02-03T23:37:31;44.58;;;5.47;;
52962;SDS011;38827;53.024;6.596;2023-02-03T23:39:57;40.38;;;6.30;;
52962;SDS011;38827;53.024;6.596;2023-02-03T23:42:22;37.15;;;5.28;;
52962;SDS011;38827;53.024;6.596;2023-02-03T23:44:50;40.22;;;5.35;;
52962;SDS011;38827;53.024;6.596;2023-02-03T23:47:16;34.72;;;5.68;;
52962;SDS011;38827;53.024;6.596;2023-02-03T23:49:43;39.90;;;5.93;;
52962;SDS011;38827;53.024;6.596;2023-02-03T23:52:08;41.55;;;5.63;;
52962;SDS011;38827;53.024;6.596;2023-02-03T23:54:34;48.47;;;6.68;;
52962;SDS011;38827;53.024;6.596;2023-02-03T23:57:00;38.58;;;5.18;;
52962;SDS011;38827;53.024;6.596;2023-02-03T23:59:25;43.85;;;6.10;;
